Hhl Rio De Janeiro — D5AU2 — position and weather

sailwx.info

Track history (hours):
 
Tides and Currents Weather Stations Pressure Air Temp Water Temp Dewpoint Dewpoint Depression Visibility Wind Speed Wind Dir Waves Ship Positions

Hhl Rio De Janeiro

Last reported at 2016-Oct-10 07:33 UTC. Time now 2016-Dec-11 00:20 UTC.
Position N 51°17' E 004°22'.
Warning: this ship's position is months out of date.

Length 168 m; draft 7.2 m.

Type: Cargo ship. MMSI: 636092346.

Date/timePositionNaut miles runAvg speedWind from/ knotsBaromVisibWave heightAir tempDewpointWater temp
2016-Oct-10 07:33N 51°17' E 004°22'0 0.0
2016-Oct-10 01:33N 51°17' E 004°22'0 0.0
2016-Oct-10 00:33N 51°17' E 004°22'0 0.0
2016-Oct-09 22:33N 51°17' E 004°22'0 0.0
2016-Oct-09 17:33N 51°17' E 004°22'0 0.0
2016-Oct-09 16:33N 51°17' E 004°22'0 0.0
2016-Oct-09 15:33N 51°17' E 004°22'0 0.0
2016-Oct-09 14:33N 51°17' E 004°22'0 0.0
2016-Oct-09 12:33N 51°17' E 004°22'0 0.0
2016-Oct-09 11:33N 51°17' E 004°22'3 1.5
2016-Oct-09 09:34N 51°18' E 004°17'7 7.5
2016-Oct-09 08:34N 51°22' E 004°08'35 8.8
2016-Oct-09 04:33N 51°40' E 003°19'10 9.8
2016-Oct-09 03:34N 51°49' E 003°15'13911.2
2016-Oct-08 15:12N 53°55' E 004°52'812.0
2016-Oct-08 14:33N 54°02' E 004°56'1212.1
2016-Oct-08 13:33N 54°14' E 005°04'28512.4
2016-Oct-07 14:33N 57°47' E 010°43'9 3.9
2016-Oct-07 12:13N 57°39' E 010°39'0 0.0
2016-Oct-07 09:19N 57°39' E 010°39'0 0.0
2016-Oct-07 06:25N 57°39' E 010°39'0 0.0
2016-Oct-07 01:25N 57°39' E 010°39'0 0.0
2016-Oct-06 10:28N 57°39' E 010°39'0 0.0
2016-Oct-06 04:28N 57°39' E 010°39'0 0.0
2016-Oct-06 03:25N 57°39' E 010°39'0 0.0
2016-Oct-06 02:19N 57°39' E 010°39'0 0.0
2016-Oct-06 01:25N 57°39' E 010°39'0 0.0
2016-Oct-06 00:31N 57°39' E 010°39'6 6.3
2016-Oct-05 23:33N 57°33' E 010°42'7 0.2
2016-Oct-04 12:30N 57°26' E 010°39'5 2.5
2016-Oct-04 10:34N 57°21' E 010°40'27 4.5
2016-Oct-04 04:30N 57°03' E 010°03'0 0.0
2016-Oct-04 02:18N 57°03' E 010°03'0 0.0
2016-Oct-03 23:33N 57°03' E 010°03'0 0.0
2016-Oct-03 20:33N 57°03' E 010°03'0 0.0
2016-Oct-03 19:33N 57°03' E 010°03'0 0.0
2016-Oct-03 17:33N 57°03' E 010°03'0 0.0
2016-Oct-03 11:33N 57°03' E 010°03'0 0.0
2016-Oct-03 10:33N 57°03' E 010°03'0 0.0
2016-Oct-03 09:33N 57°03' E 010°03'0 0.0
2016-Oct-03 05:33N 57°03' E 010°03'0 0.0
2016-Oct-03 04:27N 57°03' E 010°03'0 0.0
2016-Oct-02 18:33N 57°03' E 010°03'5 1.6
2016-Oct-02 15:34N 57°00' E 010°10'1010.0
2016-Oct-02 14:34N 56°57' E 010°27'99 4.3
2016-Oct-01 15:33N 55°18' E 010°48'0 0.0
2016-Oct-01 14:33N 55°18' E 010°48'0 0.0
2016-Oct-01 13:33N 55°18' E 010°48'0 0.0
2016-Oct-01 04:33N 55°18' E 010°48'0 0.0
2016-Oct-01 03:33N 55°18' E 010°48'0 0.0
2016-Oct-01 00:27N 55°18' E 010°48'0 0.0
2016-Sep-30 22:33N 55°18' E 010°48'0 0.0
2016-Sep-30 16:33N 55°18' E 010°48'0 0.0
2016-Sep-30 14:33N 55°18' E 010°48'0 0.0
2016-Sep-30 13:33N 55°18' E 010°48'0 0.0
2016-Sep-30 10:33N 55°18' E 010°48'0 0.0
2016-Sep-30 08:30N 55°18' E 010°48'  
Track history (hours):
 
Tides and Currents Weather Stations Pressure Air Temp Water Temp Dewpoint Dewpoint Depression Visibility Wind Speed Wind Dir Waves Ship Positions

Hhl Rio De Janeiro

Last reported at 2016-Oct-10 07:33 UTC. Time now 2016-Dec-11 00:20 UTC.
Position N 51°17' E 004°22'.
Warning: this ship's position is months out of date.

Length 168 m; draft 7.2 m.

Type: Cargo ship. MMSI: 636092346.

Date/timePositionNaut miles runAvg speedWind from/ knotsBaromVisibWave heightAir tempDewpointWater temp
2016-Oct-10 07:33N 51°17' E 004°22'0 0.0
2016-Oct-10 01:33N 51°17' E 004°22'0 0.0
2016-Oct-10 00:33N 51°17' E 004°22'0 0.0
2016-Oct-09 22:33N 51°17' E 004°22'0 0.0
2016-Oct-09 17:33N 51°17' E 004°22'0 0.0
2016-Oct-09 16:33N 51°17' E 004°22'0 0.0
2016-Oct-09 15:33N 51°17' E 004°22'0 0.0
2016-Oct-09 14:33N 51°17' E 004°22'0 0.0
2016-Oct-09 12:33N 51°17' E 004°22'0 0.0
2016-Oct-09 11:33N 51°17' E 004°22'3 1.5
2016-Oct-09 09:34N 51°18' E 004°17'7 7.5
2016-Oct-09 08:34N 51°22' E 004°08'35 8.8
2016-Oct-09 04:33N 51°40' E 003°19'10 9.8
2016-Oct-09 03:34N 51°49' E 003°15'13911.2
2016-Oct-08 15:12N 53°55' E 004°52'812.0
2016-Oct-08 14:33N 54°02' E 004°56'1212.1
2016-Oct-08 13:33N 54°14' E 005°04'28512.4
2016-Oct-07 14:33N 57°47' E 010°43'9 3.9
2016-Oct-07 12:13N 57°39' E 010°39'0 0.0
2016-Oct-07 09:19N 57°39' E 010°39'0 0.0
2016-Oct-07 06:25N 57°39' E 010°39'0 0.0
2016-Oct-07 01:25N 57°39' E 010°39'0 0.0
2016-Oct-06 10:28N 57°39' E 010°39'0 0.0
2016-Oct-06 04:28N 57°39' E 010°39'0 0.0
2016-Oct-06 03:25N 57°39' E 010°39'0 0.0
2016-Oct-06 02:19N 57°39' E 010°39'0 0.0
2016-Oct-06 01:25N 57°39' E 010°39'0 0.0
2016-Oct-06 00:31N 57°39' E 010°39'6 6.3
2016-Oct-05 23:33N 57°33' E 010°42'7 0.2
2016-Oct-04 12:30N 57°26' E 010°39'5 2.5
2016-Oct-04 10:34N 57°21' E 010°40'27 4.5
2016-Oct-04 04:30N 57°03' E 010°03'0 0.0
2016-Oct-04 02:18N 57°03' E 010°03'0 0.0
2016-Oct-03 23:33N 57°03' E 010°03'0 0.0
2016-Oct-03 20:33N 57°03' E 010°03'0 0.0
2016-Oct-03 19:33N 57°03' E 010°03'0 0.0
2016-Oct-03 17:33N 57°03' E 010°03'0 0.0
2016-Oct-03 11:33N 57°03' E 010°03'0 0.0
2016-Oct-03 10:33N 57°03' E 010°03'0 0.0
2016-Oct-03 09:33N 57°03' E 010°03'0 0.0
2016-Oct-03 05:33N 57°03' E 010°03'0 0.0
2016-Oct-03 04:27N 57°03' E 010°03'0 0.0
2016-Oct-02 18:33N 57°03' E 010°03'5 1.6
2016-Oct-02 15:34N 57°00' E 010°10'1010.0
2016-Oct-02 14:34N 56°57' E 010°27'99 4.3
2016-Oct-01 15:33N 55°18' E 010°48'0 0.0
2016-Oct-01 14:33N 55°18' E 010°48'0 0.0
2016-Oct-01 13:33N 55°18' E 010°48'0 0.0
2016-Oct-01 04:33N 55°18' E 010°48'0 0.0
2016-Oct-01 03:33N 55°18' E 010°48'0 0.0
2016-Oct-01 00:27N 55°18' E 010°48'0 0.0
2016-Sep-30 22:33N 55°18' E 010°48'0 0.0
2016-Sep-30 16:33N 55°18' E 010°48'0 0.0
2016-Sep-30 14:33N 55°18' E 010°48'0 0.0
2016-Sep-30 13:33N 55°18' E 010°48'0 0.0
2016-Sep-30 10:33N 55°18' E 010°48'0 0.0
2016-Sep-30 08:30N 55°18' E 010°48'  

Dump ship's entire track history